sensor_id;sensor_type;location;lat;lon;timestamp;P1;durP1;ratioP1;P2;durP2;ratioP2
32329;SDS011;18807;52.434;13.238;2023-07-20T00:00:00;5.13;;;3.55;;
32329;SDS011;18807;52.434;13.238;2023-07-20T00:07:35;3.47;;;3.17;;
32329;SDS011;18807;52.434;13.238;2023-07-20T00:15:09;3.83;;;3.45;;
32329;SDS011;18807;52.434;13.238;2023-07-20T00:22:44;3.67;;;3.15;;
32329;SDS011;18807;52.434;13.238;2023-07-20T00:30:19;3.40;;;3.10;;
32329;SDS011;18807;52.434;13.238;2023-07-20T00:37:54;5.17;;;4.40;;
32329;SDS011;18807;52.434;13.238;2023-07-20T00:45:28;3.78;;;3.45;;
32329;SDS011;18807;52.434;13.238;2023-07-20T00:53:04;4.35;;;3.90;;
32329;SDS011;18807;52.434;13.238;2023-07-20T01:00:38;4.53;;;3.80;;
32329;SDS011;18807;52.434;13.238;2023-07-20T01:08:15;5.07;;;4.43;;
32329;SDS011;18807;52.434;13.238;2023-07-20T01:15:58;4.17;;;3.83;;
32329;SDS011;18807;52.434;13.238;2023-07-20T01:31:36;5.68;;;5.10;;
32329;SDS011;18807;52.434;13.238;2023-07-20T01:39:11;4.88;;;4.40;;
32329;SDS011;18807;52.434;13.238;2023-07-20T01:54:21;5.00;;;4.60;;
32329;SDS011;18807;52.434;13.238;2023-07-20T02:01:57;6.40;;;4.50;;
32329;SDS011;18807;52.434;13.238;2023-07-20T02:09:31;6.32;;;5.15;;
32329;SDS011;18807;52.434;13.238;2023-07-20T02:17:06;4.70;;;4.30;;
32329;SDS011;18807;52.434;13.238;2023-07-20T02:24:43;6.40;;;5.50;;
32329;SDS011;18807;52.434;13.238;2023-07-20T02:32:18;5.53;;;4.93;;
32329;SDS011;18807;52.434;13.238;2023-07-20T02:39:52;6.00;;;5.40;;
32329;SDS011;18807;52.434;13.238;2023-07-20T02:47:28;9.82;;;7.50;;
32329;SDS011;18807;52.434;13.238;2023-07-20T02:55:02;8.43;;;7.22;;
32329;SDS011;18807;52.434;13.238;2023-07-20T03:02:38;7.27;;;6.57;;
32329;SDS011;18807;52.434;13.238;2023-07-20T03:10:12;7.95;;;7.13;;
32329;SDS011;18807;52.434;13.238;2023-07-20T03:17:48;12.37;;;9.20;;
32329;SDS011;18807;52.434;13.238;2023-07-20T03:25:22;9.45;;;8.45;;
32329;SDS011;18807;52.434;13.238;2023-07-20T03:33:01;9.50;;;7.80;;
32329;SDS011;18807;52.434;13.238;2023-07-20T03:40:35;7.93;;;7.20;;
32329;SDS011;18807;52.434;13.238;2023-07-20T03:48:11;13.33;;;11.90;;
32329;SDS011;18807;52.434;13.238;2023-07-20T03:55:45;14.35;;;11.02;;
32329;SDS011;18807;52.434;13.238;2023-07-20T04:03:21;13.43;;;11.30;;
32329;SDS011;18807;52.434;13.238;2023-07-20T04:10:57;15.73;;;10.95;;
32329;SDS011;18807;52.434;13.238;2023-07-20T04:18:32;10.10;;;9.02;;
32329;SDS011;18807;52.434;13.238;2023-07-20T04:26:06;17.13;;;11.95;;
32329;SDS011;18807;52.434;13.238;2023-07-20T04:33:42;10.90;;;9.10;;
32329;SDS011;18807;52.434;13.238;2023-07-20T04:41:15;16.45;;;12.02;;
32329;SDS011;18807;52.434;13.238;2023-07-20T04:48:51;10.30;;;8.83;;
32329;SDS011;18807;52.434;13.238;2023-07-20T04:56:25;10.20;;;7.85;;
32329;SDS011;18807;52.434;13.238;2023-07-20T05:04:00;13.95;;;11.98;;
32329;SDS011;18807;52.434;13.238;2023-07-20T05:11:34;13.10;;;10.23;;
32329;SDS011;18807;52.434;13.238;2023-07-20T05:19:10;11.03;;;9.20;;
32329;SDS011;18807;52.434;13.238;2023-07-20T05:26:44;19.92;;;11.82;;
32329;SDS011;18807;52.434;13.238;2023-07-20T05:34:20;14.80;;;12.67;;
32329;SDS011;18807;52.434;13.238;2023-07-20T05:41:54;11.93;;;9.20;;
32329;SDS011;18807;52.434;13.238;2023-07-20T05:49:30;12.93;;;10.52;;
32329;SDS011;18807;52.434;13.238;2023-07-20T05:57:04;9.32;;;8.40;;
32329;SDS011;18807;52.434;13.238;2023-07-20T06:04:40;11.55;;;9.50;;
32329;SDS011;18807;52.434;13.238;2023-07-20T06:12:16;12.43;;;9.80;;
32329;SDS011;18807;52.434;13.238;2023-07-20T06:19:52;10.63;;;8.93;;
32329;SDS011;18807;52.434;13.238;2023-07-20T06:27:26;14.02;;;10.88;;
32329;SDS011;18807;52.434;13.238;2023-07-20T06:35:05;9.80;;;7.93;;
32329;SDS011;18807;52.434;13.238;2023-07-20T06:42:40;7.18;;;4.85;;
32329;SDS011;18807;52.434;13.238;2023-07-20T06:50:18;6.60;;;5.00;;
32329;SDS011;18807;52.434;13.238;2023-07-20T06:57:59;4.00;;;3.33;;
32329;SDS011;18807;52.434;13.238;2023-07-20T07:05:36;3.33;;;3.03;;
32329;SDS011;18807;52.434;13.238;2023-07-20T07:13:11;4.10;;;2.60;;
32329;SDS011;18807;52.434;13.238;2023-07-20T07:20:51;3.55;;;2.72;;
32329;SDS011;18807;52.434;13.238;2023-07-20T07:28:25;2.60;;;2.40;;
32329;SDS011;18807;52.434;13.238;2023-07-20T07:36:01;2.33;;;1.70;;
32329;SDS011;18807;52.434;13.238;2023-07-20T07:43:35;2.50;;;1.30;;
32329;SDS011;18807;52.434;13.238;2023-07-20T07:51:12;1.80;;;1.60;;
32329;SDS011;18807;52.434;13.238;2023-07-20T07:58:47;1.63;;;1.52;;
32329;SDS011;18807;52.434;13.238;2023-07-20T08:06:23;3.30;;;1.13;;
32329;SDS011;18807;52.434;13.238;2023-07-20T08:13:59;1.20;;;1.10;;
32329;SDS011;18807;52.434;13.238;2023-07-20T08:21:34;1.80;;;1.00;;
32329;SDS011;18807;52.434;13.238;2023-07-20T08:29:26;4.05;;;1.13;;
32329;SDS011;18807;52.434;13.238;2023-07-20T08:37:01;1.05;;;1.00;;
32329;SDS011;18807;52.434;13.238;2023-07-20T08:44:35;0.70;;;0.70;;
32329;SDS011;18807;52.434;13.238;2023-07-20T08:52:12;1.45;;;1.00;;
32329;SDS011;18807;52.434;13.238;2023-07-20T08:59:46;0.80;;;0.80;;
32329;SDS011;18807;52.434;13.238;2023-07-20T09:07:23;0.80;;;0.80;;
32329;SDS011;18807;52.434;13.238;2023-07-20T09:14:58;1.58;;;0.63;;
32329;SDS011;18807;52.434;13.238;2023-07-20T09:22:34;0.70;;;0.70;;
32329;SDS011;18807;52.434;13.238;2023-07-20T09:30:08;1.00;;;0.70;;
32329;SDS011;18807;52.434;13.238;2023-07-20T09:37:51;1.45;;;0.60;;
32329;SDS011;18807;52.434;13.238;2023-07-20T09:45:33;0.70;;;0.70;;
32329;SDS011;18807;52.434;13.238;2023-07-20T09:53:12;7.65;;;1.10;;
32329;SDS011;18807;52.434;13.238;2023-07-20T10:00:47;0.88;;;0.88;;
32329;SDS011;18807;52.434;13.238;2023-07-20T10:08:27;1.38;;;0.90;;
32329;SDS011;18807;52.434;13.238;2023-07-20T10:16:07;1.48;;;0.60;;
32329;SDS011;18807;52.434;13.238;2023-07-20T10:23:45;1.42;;;1.20;;
32329;SDS011;18807;52.434;13.238;2023-07-20T10:31:20;0.88;;;0.80;;
32329;SDS011;18807;52.434;13.238;2023-07-20T10:38:56;2.92;;;0.90;;
32329;SDS011;18807;52.434;13.238;2023-07-20T10:46:35;2.28;;;0.77;;
32329;SDS011;18807;52.434;13.238;2023-07-20T11:02:10;1.10;;;0.60;;
32329;SDS011;18807;52.434;13.238;2023-07-20T11:09:46;0.50;;;0.50;;
32329;SDS011;18807;52.434;13.238;2023-07-20T11:17:22;1.88;;;0.93;;
32329;SDS011;18807;52.434;13.238;2023-07-20T11:25:04;1.85;;;0.73;;
32329;SDS011;18807;52.434;13.238;2023-07-20T11:32:45;1.10;;;0.60;;
32329;SDS011;18807;52.434;13.238;2023-07-20T11:40:23;1.38;;;0.55;;
32329;SDS011;18807;52.434;13.238;2023-07-20T11:47:58;2.08;;;0.80;;
32329;SDS011;18807;52.434;13.238;2023-07-20T11:55:34;0.93;;;0.70;;
32329;SDS011;18807;52.434;13.238;2023-07-20T12:03:09;0.88;;;0.50;;
32329;SDS011;18807;52.434;13.238;2023-07-20T12:10:45;1.00;;;0.70;;
32329;SDS011;18807;52.434;13.238;2023-07-20T12:18:22;0.43;;;0.43;;
32329;SDS011;18807;52.434;13.238;2023-07-20T12:25:58;0.47;;;0.43;;
32329;SDS011;18807;52.434;13.238;2023-07-20T12:33:32;0.30;;;0.30;;
32329;SDS011;18807;52.434;13.238;2023-07-20T12:41:09;0.55;;;0.50;;
32329;SDS011;18807;52.434;13.238;2023-07-20T12:48:46;1.15;;;0.50;;
32329;SDS011;18807;52.434;13.238;2023-07-20T12:56:22;0.50;;;0.43;;
32329;SDS011;18807;52.434;13.238;2023-07-20T13:03:59;0.57;;;0.40;;
32329;SDS011;18807;52.434;13.238;2023-07-20T13:11:38;0.77;;;0.50;;
32329;SDS011;18807;52.434;13.238;2023-07-20T13:19:12;0.40;;;0.40;;
32329;SDS011;18807;52.434;13.238;2023-07-20T13:26:47;0.73;;;0.40;;
32329;SDS011;18807;52.434;13.238;2023-07-20T13:34:22;0.40;;;0.40;;
32329;SDS011;18807;52.434;13.238;2023-07-20T13:41:58;0.40;;;0.40;;
32329;SDS011;18807;52.434;13.238;2023-07-20T13:49:33;2.30;;;0.50;;
32329;SDS011;18807;52.434;13.238;2023-07-20T13:57:20;0.52;;;0.52;;
32329;SDS011;18807;52.434;13.238;2023-07-20T14:04:54;0.70;;;0.50;;
32329;SDS011;18807;52.434;13.238;2023-07-20T14:12:33;0.77;;;0.60;;
32329;SDS011;18807;52.434;13.238;2023-07-20T14:20:07;0.80;;;0.45;;
32329;SDS011;18807;52.434;13.238;2023-07-20T14:27:46;0.40;;;0.38;;
32329;SDS011;18807;52.434;13.238;2023-07-20T14:35:20;0.57;;;0.40;;
32329;SDS011;18807;52.434;13.238;2023-07-20T14:42:59;0.95;;;0.40;;
32329;SDS011;18807;52.434;13.238;2023-07-20T14:50:34;0.30;;;0.30;;
32329;SDS011;18807;52.434;13.238;2023-07-20T14:58:09;0.70;;;0.30;;
32329;SDS011;18807;52.434;13.238;2023-07-20T15:05:43;0.63;;;0.40;;
32329;SDS011;18807;52.434;13.238;2023-07-20T15:13:19;1.92;;;0.57;;
32329;SDS011;18807;52.434;13.238;2023-07-20T15:20:53;0.40;;;0.40;;
32329;SDS011;18807;52.434;13.238;2023-07-20T15:28:29;1.00;;;0.40;;
32329;SDS011;18807;52.434;13.238;2023-07-20T15:36:03;3.38;;;0.63;;
32329;SDS011;18807;52.434;13.238;2023-07-20T15:43:41;0.45;;;0.40;;
32329;SDS011;18807;52.434;13.238;2023-07-20T15:51:16;2.67;;;0.50;;
32329;SDS011;18807;52.434;13.238;2023-07-20T15:58:52;0.98;;;0.57;;
32329;SDS011;18807;52.434;13.238;2023-07-20T16:06:26;1.23;;;0.52;;
32329;SDS011;18807;52.434;13.238;2023-07-20T16:14:02;2.97;;;0.65;;
32329;SDS011;18807;52.434;13.238;2023-07-20T16:21:36;1.25;;;0.57;;
32329;SDS011;18807;52.434;13.238;2023-07-20T16:29:13;2.67;;;0.63;;
32329;SDS011;18807;52.434;13.238;2023-07-20T16:36:51;2.38;;;0.75;;
32329;SDS011;18807;52.434;13.238;2023-07-20T16:44:30;1.30;;;0.73;;
32329;SDS011;18807;52.434;13.238;2023-07-20T16:52:05;0.73;;;0.70;;
32329;SDS011;18807;52.434;13.238;2023-07-20T17:07:15;3.05;;;0.88;;
32329;SDS011;18807;52.434;13.238;2023-07-20T17:14:51;4.47;;;0.93;;
32329;SDS011;18807;52.434;13.238;2023-07-20T17:22:26;2.00;;;0.90;;
32329;SDS011;18807;52.434;13.238;2023-07-20T17:30:01;3.80;;;0.60;;
32329;SDS011;18807;52.434;13.238;2023-07-20T17:37:36;2.60;;;1.20;;
32329;SDS011;18807;52.434;13.238;2023-07-20T17:45:16;1.15;;;0.88;;
32329;SDS011;18807;52.434;13.238;2023-07-20T17:52:50;1.95;;;1.10;;
32329;SDS011;18807;52.434;13.238;2023-07-20T18:00:25;2.22;;;1.33;;
32329;SDS011;18807;52.434;13.238;2023-07-20T18:08:02;2.05;;;0.75;;
32329;SDS011;18807;52.434;13.238;2023-07-20T18:15:38;3.97;;;0.77;;
32329;SDS011;18807;52.434;13.238;2023-07-20T18:23:13;2.33;;;0.47;;
32329;SDS011;18807;52.434;13.238;2023-07-20T18:30:48;1.17;;;0.60;;
32329;SDS011;18807;52.434;13.238;2023-07-20T18:38:23;3.17;;;0.77;;
32329;SDS011;18807;52.434;13.238;2023-07-20T18:45:59;1.17;;;0.60;;
32329;SDS011;18807;52.434;13.238;2023-07-20T18:53:33;1.88;;;0.52;;
32329;SDS011;18807;52.434;13.238;2023-07-20T19:01:09;0.67;;;0.50;;
32329;SDS011;18807;52.434;13.238;2023-07-20T19:08:43;0.60;;;0.50;;
32329;SDS011;18807;52.434;13.238;2023-07-20T19:16:18;1.45;;;0.95;;
32329;SDS011;18807;52.434;13.238;2023-07-20T19:23:52;0.57;;;0.55;;
32329;SDS011;18807;52.434;13.238;2023-07-20T19:31:28;0.70;;;0.60;;
32329;SDS011;18807;52.434;13.238;2023-07-20T19:39:02;1.88;;;0.50;;
32329;SDS011;18807;52.434;13.238;2023-07-20T19:46:38;1.00;;;0.67;;
32329;SDS011;18807;52.434;13.238;2023-07-20T19:54:13;0.70;;;0.60;;
32329;SDS011;18807;52.434;13.238;2023-07-20T20:01:51;1.00;;;0.80;;
32329;SDS011;18807;52.434;13.238;2023-07-20T20:09:25;0.80;;;0.60;;
32329;SDS011;18807;52.434;13.238;2023-07-20T20:17:01;1.80;;;1.00;;
32329;SDS011;18807;52.434;13.238;2023-07-20T20:24:36;2.33;;;1.25;;
32329;SDS011;18807;52.434;13.238;2023-07-20T20:32:11;2.50;;;1.27;;
32329;SDS011;18807;52.434;13.238;2023-07-20T20:39:45;2.45;;;1.40;;
32329;SDS011;18807;52.434;13.238;2023-07-20T20:47:21;2.88;;;2.00;;
32329;SDS011;18807;52.434;13.238;2023-07-20T20:55:13;3.28;;;2.53;;
32329;SDS011;18807;52.434;13.238;2023-07-20T21:02:49;4.25;;;3.22;;
32329;SDS011;18807;52.434;13.238;2023-07-20T21:10:23;2.22;;;2.00;;
32329;SDS011;18807;52.434;13.238;2023-07-20T21:17:58;2.20;;;1.50;;
32329;SDS011;18807;52.434;13.238;2023-07-20T21:25:33;3.15;;;1.63;;
32329;SDS011;18807;52.434;13.238;2023-07-20T21:33:08;3.00;;;0.95;;
32329;SDS011;18807;52.434;13.238;2023-07-20T21:40:45;2.63;;;1.95;;
32329;SDS011;18807;52.434;13.238;2023-07-20T21:48:20;8.90;;;5.97;;
32329;SDS011;18807;52.434;13.238;2023-07-20T21:55:54;5.47;;;3.83;;
32329;SDS011;18807;52.434;13.238;2023-07-20T22:03:30;8.45;;;5.55;;
32329;SDS011;18807;52.434;13.238;2023-07-20T22:11:04;6.65;;;5.00;;
32329;SDS011;18807;52.434;13.238;2023-07-20T22:26:17;4.55;;;2.88;;
32329;SDS011;18807;52.434;13.238;2023-07-20T22:33:53;3.97;;;2.80;;
32329;SDS011;18807;52.434;13.238;2023-07-20T22:41:28;3.83;;;2.17;;
32329;SDS011;18807;52.434;13.238;2023-07-20T22:49:04;4.40;;;2.28;;
32329;SDS011;18807;52.434;13.238;2023-07-20T22:56:38;3.63;;;2.25;;
32329;SDS011;18807;52.434;13.238;2023-07-20T23:04:13;2.50;;;1.70;;
32329;SDS011;18807;52.434;13.238;2023-07-20T23:11:48;2.92;;;1.48;;
32329;SDS011;18807;52.434;13.238;2023-07-20T23:19:23;2.42;;;1.83;;
32329;SDS011;18807;52.434;13.238;2023-07-20T23:26:59;2.80;;;1.45;;
32329;SDS011;18807;52.434;13.238;2023-07-20T23:34:35;3.53;;;1.80;;
32329;SDS011;18807;52.434;13.238;2023-07-20T23:42:11;2.05;;;1.10;;
32329;SDS011;18807;52.434;13.238;2023-07-20T23:57:21;1.65;;;1.30;;
